<?xml version="1.0" encoding="UTF-8" standalone="no" ?>
<gpx xmlns="http://www.topografix.com/GPX/1/1" xmlns:xsi="http://www.w3.org/2001/XMLSchema-instance" xsi:schemaLocation="http://www.topografix.com/GPX/1/1 http://www.topografix.com/GPX/1/1/gpx.xsd" version="1.1" creator="VisuGPX - https://www.visugpx.com">
  <metadata>
    <name>Fontainebleau, la roche Sidonie Mertens</name>
    <desc><![CDATA[Promenade tranquille au départ de Carrefour du Coq (site ONF de la Faisanderie). 
La tête de Milou en haut du tracé est dû au contournement d'un enclos de plantation. La Roche Sidonie Mertens se trouve dans l'enclos, passer par les chatières prévues dans le grillage.]]></desc>
  </metadata>
  <trk>
    <name><![CDATA[2018-02-28 15:49:41]]></name>
    <trkseg>
      <trkpt lat="48.40469" lon="2.678">
        <ele>70.31</ele>
        <time>2018-02-28T13:00:57Z</time>
      </trkpt>
      <trkpt lat="48.40471" lon="2.67804">
        <ele>82.33</ele>
        <time>2018-02-28T13:01:23Z</time>
      </trkpt>
      <trkpt lat="48.40475" lon="2.67804">
        <ele>83.77</ele>
        <time>2018-02-28T13:01:46Z</time>
      </trkpt>
      <trkpt lat="48.40475" lon="2.67803">
        <ele>85.21</ele>
        <time>2018-02-28T13:02:03Z</time>
      </trkpt>
      <trkpt lat="48.4048" lon="2.67797">
        <ele>83.77</ele>
        <time>2018-02-28T13:02:27Z</time>
      </trkpt>
      <trkpt lat="48.4048" lon="2.67795">
        <ele>83.29</ele>
        <time>2018-02-28T13:02:29Z</time>
      </trkpt>
      <trkpt lat="48.40495" lon="2.67772">
        <ele>81.85</ele>
        <time>2018-02-28T13:02:49Z</time>
      </trkpt>
      <trkpt lat="48.40515" lon="2.67757">
        <ele>78.48</ele>
        <time>2018-02-28T13:03:09Z</time>
      </trkpt>
      <trkpt lat="48.40538" lon="2.67741">
        <ele>76.08</ele>
        <time>2018-02-28T13:03:31Z</time>
      </trkpt>
      <trkpt lat="48.40541" lon="2.67714">
        <ele>78</ele>
        <time>2018-02-28T13:03:48Z</time>
      </trkpt>
      <trkpt lat="48.40551" lon="2.67683">
        <ele>78.48</ele>
        <time>2018-02-28T13:04:08Z</time>
      </trkpt>
      <trkpt lat="48.4055" lon="2.67667">
        <ele>80.89</ele>
        <time>2018-02-28T13:04:22Z</time>
      </trkpt>
      <trkpt lat="48.40552" lon="2.67678">
        <ele>78</ele>
        <time>2018-02-28T13:04:37Z</time>
      </trkpt>
      <trkpt lat="48.40559" lon="2.67688">
        <ele>77.52</ele>
        <time>2018-02-28T13:04:50Z</time>
      </trkpt>
      <trkpt lat="48.40573" lon="2.677">
        <ele>77.52</ele>
        <time>2018-02-28T13:05:09Z</time>
      </trkpt>
      <trkpt lat="48.40588" lon="2.67714">
        <ele>76.08</ele>
        <time>2018-02-28T13:05:30Z</time>
      </trkpt>
      <trkpt lat="48.40605" lon="2.67725">
        <ele>77.04</ele>
        <time>2018-02-28T13:05:48Z</time>
      </trkpt>
      <trkpt lat="48.40624" lon="2.67736">
        <ele>76.08</ele>
        <time>2018-02-28T13:06:08Z</time>
      </trkpt>
      <trkpt lat="48.40636" lon="2.67745">
        <ele>76.08</ele>
        <time>2018-02-28T13:06:25Z</time>
      </trkpt>
      <trkpt lat="48.4065" lon="2.67757">
        <ele>74.64</ele>
        <time>2018-02-28T13:06:41Z</time>
      </trkpt>
      <trkpt lat="48.40665" lon="2.67769">
        <ele>74.16</ele>
        <time>2018-02-28T13:06:58Z</time>
      </trkpt>
      <trkpt lat="48.40676" lon="2.67777">
        <ele>70.79</ele>
        <time>2018-02-28T13:07:16Z</time>
      </trkpt>
      <trkpt lat="48.40696" lon="2.67787">
        <ele>75.12</ele>
        <time>2018-02-28T13:07:36Z</time>
      </trkpt>
      <trkpt lat="48.40715" lon="2.67804">
        <ele>73.2</ele>
        <time>2018-02-28T13:07:57Z</time>
      </trkpt>
      <trkpt lat="48.40733" lon="2.67819">
        <ele>74.64</ele>
        <time>2018-02-28T13:08:14Z</time>
      </trkpt>
      <trkpt lat="48.40749" lon="2.67834">
        <ele>78.48</ele>
        <time>2018-02-28T13:08:32Z</time>
      </trkpt>
      <trkpt lat="48.40766" lon="2.67847">
        <ele>79.45</ele>
        <time>2018-02-28T13:08:52Z</time>
      </trkpt>
      <trkpt lat="48.40781" lon="2.67854">
        <ele>77.52</ele>
        <time>2018-02-28T13:09:09Z</time>
      </trkpt>
      <trkpt lat="48.40789" lon="2.67859">
        <ele>71.76</ele>
        <time>2018-02-28T13:09:25Z</time>
      </trkpt>
      <trkpt lat="48.40806" lon="2.67874">
        <ele>66.47</ele>
        <time>2018-02-28T13:09:47Z</time>
      </trkpt>
      <trkpt lat="48.40826" lon="2.67891">
        <ele>68.87</ele>
        <time>2018-02-28T13:10:04Z</time>
      </trkpt>
      <trkpt lat="48.40845" lon="2.67915">
        <ele>77.52</ele>
        <time>2018-02-28T13:10:23Z</time>
      </trkpt>
      <trkpt lat="48.40856" lon="2.67946">
        <ele>79.45</ele>
        <time>2018-02-28T13:10:44Z</time>
      </trkpt>
      <trkpt lat="48.40857" lon="2.67969">
        <ele>69.83</ele>
        <time>2018-02-28T13:11:03Z</time>
      </trkpt>
      <trkpt lat="48.4087" lon="2.68002">
        <ele>71.27</ele>
        <time>2018-02-28T13:11:24Z</time>
      </trkpt>
      <trkpt lat="48.40885" lon="2.68032">
        <ele>76.08</ele>
        <time>2018-02-28T13:11:45Z</time>
      </trkpt>
      <trkpt lat="48.40893" lon="2.68059">
        <ele>73.68</ele>
        <time>2018-02-28T13:12:04Z</time>
      </trkpt>
      <trkpt lat="48.409" lon="2.68088">
        <ele>73.68</ele>
        <time>2018-02-28T13:12:25Z</time>
      </trkpt>
      <trkpt lat="48.40909" lon="2.68118">
        <ele>69.35</ele>
        <time>2018-02-28T13:12:46Z</time>
      </trkpt>
      <trkpt lat="48.40921" lon="2.68145">
        <ele>74.16</ele>
        <time>2018-02-28T13:13:05Z</time>
      </trkpt>
      <trkpt lat="48.40928" lon="2.68151">
        <ele>80.41</ele>
        <time>2018-02-28T13:13:24Z</time>
      </trkpt>
      <trkpt lat="48.40938" lon="2.68166">
        <ele>80.41</ele>
        <time>2018-02-28T13:13:43Z</time>
      </trkpt>
      <trkpt lat="48.40943" lon="2.68182">
        <ele>82.81</ele>
        <time>2018-02-28T13:14:02Z</time>
      </trkpt>
      <trkpt lat="48.40953" lon="2.68192">
        <ele>85.69</ele>
        <time>2018-02-28T13:14:21Z</time>
      </trkpt>
      <trkpt lat="48.40961" lon="2.682">
        <ele>84.73</ele>
        <time>2018-02-28T13:14:36Z</time>
      </trkpt>
      <trkpt lat="48.40977" lon="2.68208">
        <ele>82.81</ele>
        <time>2018-02-28T13:14:59Z</time>
      </trkpt>
      <trkpt lat="48.40987" lon="2.68212">
        <ele>77.04</ele>
        <time>2018-02-28T13:15:18Z</time>
      </trkpt>
      <trkpt lat="48.40996" lon="2.68215">
        <ele>70.79</ele>
        <time>2018-02-28T13:15:35Z</time>
      </trkpt>
      <trkpt lat="48.41016" lon="2.68208">
        <ele>82.33</ele>
        <time>2018-02-28T13:15:54Z</time>
      </trkpt>
      <trkpt lat="48.41022" lon="2.68193">
        <ele>85.21</ele>
        <time>2018-02-28T13:16:09Z</time>
      </trkpt>
      <trkpt lat="48.41028" lon="2.68179">
        <ele>84.25</ele>
        <time>2018-02-28T13:16:25Z</time>
      </trkpt>
      <trkpt lat="48.41033" lon="2.68165">
        <ele>85.69</ele>
        <time>2018-02-28T13:16:39Z</time>
      </trkpt>
      <trkpt lat="48.41041" lon="2.68143">
        <ele>88.58</ele>
        <time>2018-02-28T13:16:56Z</time>
      </trkpt>
      <trkpt lat="48.41051" lon="2.68129">
        <ele>89.54</ele>
        <time>2018-02-28T13:17:13Z</time>
      </trkpt>
      <trkpt lat="48.41059" lon="2.68115">
        <ele>91.94</ele>
        <time>2018-02-28T13:17:30Z</time>
      </trkpt>
      <trkpt lat="48.41068" lon="2.68105">
        <ele>92.42</ele>
        <time>2018-02-28T13:17:44Z</time>
      </trkpt>
      <trkpt lat="48.41075" lon="2.68088">
        <ele>89.06</ele>
        <time>2018-02-28T13:18:01Z</time>
      </trkpt>
      <trkpt lat="48.41087" lon="2.68073">
        <ele>88.58</ele>
        <time>2018-02-28T13:18:19Z</time>
      </trkpt>
      <trkpt lat="48.411" lon="2.68062">
        <ele>89.06</ele>
        <time>2018-02-28T13:18:37Z</time>
      </trkpt>
      <trkpt lat="48.41111" lon="2.68054">
        <ele>87.62</ele>
        <time>2018-02-28T13:18:53Z</time>
      </trkpt>
      <trkpt lat="48.41122" lon="2.68045">
        <ele>89.06</ele>
        <time>2018-02-28T13:19:10Z</time>
      </trkpt>
      <trkpt lat="48.41132" lon="2.68034">
        <ele>90.02</ele>
        <time>2018-02-28T13:19:31Z</time>
      </trkpt>
      <trkpt lat="48.41144" lon="2.68021">
        <ele>88.58</ele>
        <time>2018-02-28T13:19:48Z</time>
      </trkpt>
      <trkpt lat="48.41155" lon="2.68012">
        <ele>89.54</ele>
        <time>2018-02-28T13:20:05Z</time>
      </trkpt>
      <trkpt lat="48.41167" lon="2.68004">
        <ele>89.54</ele>
        <time>2018-02-28T13:20:21Z</time>
      </trkpt>
      <trkpt lat="48.41177" lon="2.67988">
        <ele>90.02</ele>
        <time>2018-02-28T13:20:39Z</time>
      </trkpt>
      <trkpt lat="48.41189" lon="2.6798">
        <ele>91.94</ele>
        <time>2018-02-28T13:20:55Z</time>
      </trkpt>
      <trkpt lat="48.41202" lon="2.67971">
        <ele>91.94</ele>
        <time>2018-02-28T13:21:11Z</time>
      </trkpt>
      <trkpt lat="48.41213" lon="2.67962">
        <ele>91.46</ele>
        <time>2018-02-28T13:21:24Z</time>
      </trkpt>
      <trkpt lat="48.41222" lon="2.67947">
        <ele>90.98</ele>
        <time>2018-02-28T13:21:38Z</time>
      </trkpt>
      <trkpt lat="48.41227" lon="2.67937">
        <ele>88.58</ele>
        <time>2018-02-28T13:21:52Z</time>
      </trkpt>
      <trkpt lat="48.41233" lon="2.67918">
        <ele>84.25</ele>
        <time>2018-02-28T13:22:09Z</time>
      </trkpt>
      <trkpt lat="48.41233" lon="2.67899">
        <ele>82.33</ele>
        <time>2018-02-28T13:22:24Z</time>
      </trkpt>
      <trkpt lat="48.41233" lon="2.67864">
        <ele>86.66</ele>
        <time>2018-02-28T13:22:45Z</time>
      </trkpt>
      <trkpt lat="48.41233" lon="2.6784">
        <ele>92.42</ele>
        <time>2018-02-28T13:22:59Z</time>
      </trkpt>
      <trkpt lat="48.41235" lon="2.67816">
        <ele>91.46</ele>
        <time>2018-02-28T13:23:16Z</time>
      </trkpt>
      <trkpt lat="48.41239" lon="2.67787">
        <ele>95.79</ele>
        <time>2018-02-28T13:23:32Z</time>
      </trkpt>
      <trkpt lat="48.41243" lon="2.67776">
        <ele>95.31</ele>
        <time>2018-02-28T13:23:40Z</time>
      </trkpt>
      <trkpt lat="48.41245" lon="2.67773">
        <ele>94.35</ele>
        <time>2018-02-28T13:23:43Z</time>
      </trkpt>
      <trkpt lat="48.41249" lon="2.67755">
        <ele>93.87</ele>
        <time>2018-02-28T13:23:57Z</time>
      </trkpt>
      <trkpt lat="48.41255" lon="2.67743">
        <ele>88.58</ele>
        <time>2018-02-28T13:24:13Z</time>
      </trkpt>
      <trkpt lat="48.41257" lon="2.67728">
        <ele>84.73</ele>
        <time>2018-02-28T13:24:29Z</time>
      </trkpt>
      <trkpt lat="48.41264" lon="2.67715">
        <ele>88.1</ele>
        <time>2018-02-28T13:24:47Z</time>
      </trkpt>
      <trkpt lat="48.41268" lon="2.67706">
        <ele>90.5</ele>
        <time>2018-02-28T13:25:01Z</time>
      </trkpt>
      <trkpt lat="48.4127" lon="2.67696">
        <ele>92.42</ele>
        <time>2018-02-28T13:25:19Z</time>
      </trkpt>
      <trkpt lat="48.41275" lon="2.67676">
        <ele>93.39</ele>
        <time>2018-02-28T13:25:32Z</time>
      </trkpt>
      <trkpt lat="48.41282" lon="2.67654">
        <ele>93.39</ele>
        <time>2018-02-28T13:25:45Z</time>
      </trkpt>
      <trkpt lat="48.41288" lon="2.67634">
        <ele>93.87</ele>
        <time>2018-02-28T13:25:59Z</time>
      </trkpt>
      <trkpt lat="48.41294" lon="2.67619">
        <ele>95.31</ele>
        <time>2018-02-28T13:26:14Z</time>
      </trkpt>
      <trkpt lat="48.41296" lon="2.67605">
        <ele>96.75</ele>
        <time>2018-02-28T13:26:28Z</time>
      </trkpt>
      <trkpt lat="48.41296" lon="2.67592">
        <ele>95.79</ele>
        <time>2018-02-28T13:26:42Z</time>
      </trkpt>
      <trkpt lat="48.41305" lon="2.67566">
        <ele>97.71</ele>
        <time>2018-02-28T13:26:57Z</time>
      </trkpt>
      <trkpt lat="48.41314" lon="2.67549">
        <ele>96.27</ele>
        <time>2018-02-28T13:27:12Z</time>
      </trkpt>
      <trkpt lat="48.41322" lon="2.67531">
        <ele>92.42</ele>
        <time>2018-02-28T13:27:27Z</time>
      </trkpt>
      <trkpt lat="48.41333" lon="2.67519">
        <ele>88.58</ele>
        <time>2018-02-28T13:27:41Z</time>
      </trkpt>
      <trkpt lat="48.41345" lon="2.67506">
        <ele>87.14</ele>
        <time>2018-02-28T13:27:56Z</time>
      </trkpt>
      <trkpt lat="48.41347" lon="2.67486">
        <ele>86.18</ele>
        <time>2018-02-28T13:28:13Z</time>
      </trkpt>
      <trkpt lat="48.4135" lon="2.67461">
        <ele>87.62</ele>
        <time>2018-02-28T13:28:29Z</time>
      </trkpt>
      <trkpt lat="48.4135" lon="2.67441">
        <ele>89.54</ele>
        <time>2018-02-28T13:28:44Z</time>
      </trkpt>
      <trkpt lat="48.41341" lon="2.67432">
        <ele>89.06</ele>
        <time>2018-02-28T13:29:05Z</time>
      </trkpt>
      <trkpt lat="48.41347" lon="2.67419">
        <ele>90.02</ele>
        <time>2018-02-28T13:29:20Z</time>
      </trkpt>
      <trkpt lat="48.4135" lon="2.67396">
        <ele>91.94</ele>
        <time>2018-02-28T13:29:36Z</time>
      </trkpt>
      <trkpt lat="48.41348" lon="2.67388">
        <ele>93.39</ele>
        <time>2018-02-28T13:29:57Z</time>
      </trkpt>
      <trkpt lat="48.41351" lon="2.67371">
        <ele>96.27</ele>
        <time>2018-02-28T13:30:13Z</time>
      </trkpt>
      <trkpt lat="48.41348" lon="2.67357">
        <ele>96.27</ele>
        <time>2018-02-28T13:30:37Z</time>
      </trkpt>
      <trkpt lat="48.41336" lon="2.67338">
        <ele>96.27</ele>
        <time>2018-02-28T13:30:55Z</time>
      </trkpt>
      <trkpt lat="48.41324" lon="2.67313">
        <ele>100.11</ele>
        <time>2018-02-28T13:31:12Z</time>
      </trkpt>
      <trkpt lat="48.4132" lon="2.67291">
        <ele>94.83</ele>
        <time>2018-02-28T13:31:29Z</time>
      </trkpt>
      <trkpt lat="48.41315" lon="2.67265">
        <ele>90.02</ele>
        <time>2018-02-28T13:31:46Z</time>
      </trkpt>
      <trkpt lat="48.4131" lon="2.67234">
        <ele>91.94</ele>
        <time>2018-02-28T13:32:04Z</time>
      </trkpt>
      <trkpt lat="48.41305" lon="2.67208">
        <ele>93.39</ele>
        <time>2018-02-28T13:32:20Z</time>
      </trkpt>
      <trkpt lat="48.41303" lon="2.67181">
        <ele>96.75</ele>
        <time>2018-02-28T13:32:34Z</time>
      </trkpt>
      <trkpt lat="48.41298" lon="2.67157">
        <ele>94.83</ele>
        <time>2018-02-28T13:32:51Z</time>
      </trkpt>
      <trkpt lat="48.41292" lon="2.67132">
        <ele>94.83</ele>
        <time>2018-02-28T13:33:06Z</time>
      </trkpt>
      <trkpt lat="48.41287" lon="2.67108">
        <ele>92.42</ele>
        <time>2018-02-28T13:33:23Z</time>
      </trkpt>
      <trkpt lat="48.41289" lon="2.67084">
        <ele>91.46</ele>
        <time>2018-02-28T13:33:36Z</time>
      </trkpt>
      <trkpt lat="48.41291" lon="2.6706">
        <ele>89.06</ele>
        <time>2018-02-28T13:33:52Z</time>
      </trkpt>
      <trkpt lat="48.41288" lon="2.6703">
        <ele>92.42</ele>
        <time>2018-02-28T13:34:09Z</time>
      </trkpt>
      <trkpt lat="48.41294" lon="2.67007">
        <ele>88.58</ele>
        <time>2018-02-28T13:34:27Z</time>
      </trkpt>
      <trkpt lat="48.41298" lon="2.66979">
        <ele>94.83</ele>
        <time>2018-02-28T13:34:43Z</time>
      </trkpt>
      <trkpt lat="48.41302" lon="2.6696">
        <ele>98.19</ele>
        <time>2018-02-28T13:34:58Z</time>
      </trkpt>
      <trkpt lat="48.41307" lon="2.66943">
        <ele>97.23</ele>
        <time>2018-02-28T13:35:13Z</time>
      </trkpt>
      <trkpt lat="48.41311" lon="2.66925">
        <ele>94.83</ele>
        <time>2018-02-28T13:35:26Z</time>
      </trkpt>
      <trkpt lat="48.41312" lon="2.669">
        <ele>95.31</ele>
        <time>2018-02-28T13:35:41Z</time>
      </trkpt>
      <trkpt lat="48.41318" lon="2.6688">
        <ele>93.87</ele>
        <time>2018-02-28T13:35:56Z</time>
      </trkpt>
      <trkpt lat="48.41324" lon="2.66857">
        <ele>91.94</ele>
        <time>2018-02-28T13:36:11Z</time>
      </trkpt>
      <trkpt lat="48.41328" lon="2.66843">
        <ele>93.39</ele>
        <time>2018-02-28T13:36:30Z</time>
      </trkpt>
      <trkpt lat="48.41328" lon="2.66837">
        <ele>93.87</ele>
        <time>2018-02-28T13:36:49Z</time>
      </trkpt>
      <trkpt lat="48.41333" lon="2.66839">
        <ele>96.27</ele>
        <time>2018-02-28T13:37:07Z</time>
      </trkpt>
      <trkpt lat="48.41343" lon="2.66836">
        <ele>96.75</ele>
        <time>2018-02-28T13:37:24Z</time>
      </trkpt>
      <trkpt lat="48.41346" lon="2.66833">
        <ele>98.67</ele>
        <time>2018-02-28T13:37:43Z</time>
      </trkpt>
      <trkpt lat="48.41364" lon="2.66836">
        <ele>100.11</ele>
        <time>2018-02-28T13:38:02Z</time>
      </trkpt>
      <trkpt lat="48.41382" lon="2.66842">
        <ele>99.63</ele>
        <time>2018-02-28T13:38:21Z</time>
      </trkpt>
      <trkpt lat="48.41399" lon="2.66839">
        <ele>98.67</ele>
        <time>2018-02-28T13:38:41Z</time>
      </trkpt>
      <trkpt lat="48.41418" lon="2.66842">
        <ele>96.75</ele>
        <time>2018-02-28T13:39:01Z</time>
      </trkpt>
      <trkpt lat="48.41434" lon="2.66841">
        <ele>96.75</ele>
        <time>2018-02-28T13:39:18Z</time>
      </trkpt>
      <trkpt lat="48.41453" lon="2.66845">
        <ele>97.71</ele>
        <time>2018-02-28T13:39:37Z</time>
      </trkpt>
      <trkpt lat="48.4147" lon="2.66845">
        <ele>96.75</ele>
        <time>2018-02-28T13:39:56Z</time>
      </trkpt>
      <trkpt lat="48.41488" lon="2.66848">
        <ele>97.71</ele>
        <time>2018-02-28T13:40:16Z</time>
      </trkpt>
      <trkpt lat="48.41485" lon="2.66845">
        <ele>100.11</ele>
        <time>2018-02-28T13:40:38Z</time>
      </trkpt>
      <trkpt lat="48.41488" lon="2.66839">
        <ele>103.48</ele>
        <time>2018-02-28T13:40:57Z</time>
      </trkpt>
      <trkpt lat="48.41495" lon="2.66844">
        <ele>103.48</ele>
        <time>2018-02-28T13:41:16Z</time>
      </trkpt>
      <trkpt lat="48.41514" lon="2.66844">
        <ele>102.52</ele>
        <time>2018-02-28T13:41:35Z</time>
      </trkpt>
      <trkpt lat="48.41534" lon="2.66846">
        <ele>101.56</ele>
        <time>2018-02-28T13:41:54Z</time>
      </trkpt>
      <trkpt lat="48.41548" lon="2.66842">
        <ele>99.63</ele>
        <time>2018-02-28T13:42:14Z</time>
      </trkpt>
      <trkpt lat="48.41558" lon="2.66834">
        <ele>97.23</ele>
        <time>2018-02-28T13:42:32Z</time>
      </trkpt>
      <trkpt lat="48.41577" lon="2.66839">
        <ele>95.79</ele>
        <time>2018-02-28T13:42:50Z</time>
      </trkpt>
      <trkpt lat="48.41579" lon="2.66839">
        <ele>95.79</ele>
        <time>2018-02-28T13:42:52Z</time>
      </trkpt>
      <trkpt lat="48.41591" lon="2.66837">
        <ele>96.27</ele>
        <time>2018-02-28T13:43:09Z</time>
      </trkpt>
      <trkpt lat="48.41592" lon="2.66826">
        <ele>96.75</ele>
        <time>2018-02-28T13:43:23Z</time>
      </trkpt>
      <trkpt lat="48.41589" lon="2.66816">
        <ele>97.71</ele>
        <time>2018-02-28T13:43:38Z</time>
      </trkpt>
      <trkpt lat="48.41573" lon="2.66802">
        <ele>107.32</ele>
        <time>2018-02-28T13:43:56Z</time>
      </trkpt>
      <trkpt lat="48.41562" lon="2.66803">
        <ele>110.69</ele>
        <time>2018-02-28T13:44:12Z</time>
      </trkpt>
      <trkpt lat="48.41549" lon="2.66794">
        <ele>115.5</ele>
        <time>2018-02-28T13:44:29Z</time>
      </trkpt>
      <trkpt lat="48.41536" lon="2.66784">
        <ele>118.38</ele>
        <time>2018-02-28T13:44:45Z</time>
      </trkpt>
      <trkpt lat="48.41526" lon="2.66772">
        <ele>117.42</ele>
        <time>2018-02-28T13:45:02Z</time>
      </trkpt>
      <trkpt lat="48.41516" lon="2.66757">
        <ele>113.57</ele>
        <time>2018-02-28T13:45:20Z</time>
      </trkpt>
      <trkpt lat="48.41508" lon="2.66742">
        <ele>112.61</ele>
        <time>2018-02-28T13:45:34Z</time>
      </trkpt>
      <trkpt lat="48.415" lon="2.66728">
        <ele>114.05</ele>
        <time>2018-02-28T13:45:50Z</time>
      </trkpt>
      <trkpt lat="48.41493" lon="2.66719">
        <ele>114.53</ele>
        <time>2018-02-28T13:46:10Z</time>
      </trkpt>
      <trkpt lat="48.41498" lon="2.66706">
        <ele>112.13</ele>
        <time>2018-02-28T13:46:29Z</time>
      </trkpt>
      <trkpt lat="48.41503" lon="2.667">
        <ele>115.5</ele>
        <time>2018-02-28T13:46:50Z</time>
      </trkpt>
      <trkpt lat="48.41509" lon="2.66688">
        <ele>118.86</ele>
        <time>2018-02-28T13:47:09Z</time>
      </trkpt>
      <trkpt lat="48.4151" lon="2.66677">
        <ele>120.3</ele>
        <time>2018-02-28T13:47:24Z</time>
      </trkpt>
      <trkpt lat="48.41507" lon="2.66664">
        <ele>118.86</ele>
        <time>2018-02-28T13:47:40Z</time>
      </trkpt>
      <trkpt lat="48.41505" lon="2.66651">
        <ele>115.01</ele>
        <time>2018-02-28T13:47:56Z</time>
      </trkpt>
      <trkpt lat="48.41504" lon="2.66634">
        <ele>111.17</ele>
        <time>2018-02-28T13:48:13Z</time>
      </trkpt>
      <trkpt lat="48.41512" lon="2.66621">
        <ele>112.61</ele>
        <time>2018-02-28T13:48:28Z</time>
      </trkpt>
      <trkpt lat="48.41516" lon="2.66611">
        <ele>114.05</ele>
        <time>2018-02-28T13:48:47Z</time>
      </trkpt>
      <trkpt lat="48.41521" lon="2.66595">
        <ele>118.38</ele>
        <time>2018-02-28T13:49:07Z</time>
      </trkpt>
      <trkpt lat="48.41526" lon="2.66577">
        <ele>118.38</ele>
        <time>2018-02-28T13:49:24Z</time>
      </trkpt>
      <trkpt lat="48.41529" lon="2.66566">
        <ele>118.86</ele>
        <time>2018-02-28T13:49:35Z</time>
      </trkpt>
      <trkpt lat="48.41528" lon="2.6655">
        <ele>118.86</ele>
        <time>2018-02-28T13:49:53Z</time>
      </trkpt>
      <trkpt lat="48.41531" lon="2.66535">
        <ele>117.42</ele>
        <time>2018-02-28T13:50:08Z</time>
      </trkpt>
      <trkpt lat="48.41536" lon="2.6652">
        <ele>117.9</ele>
        <time>2018-02-28T13:50:25Z</time>
      </trkpt>
      <trkpt lat="48.4154" lon="2.66513">
        <ele>117.9</ele>
        <time>2018-02-28T13:50:38Z</time>
      </trkpt>
      <trkpt lat="48.41546" lon="2.66501">
        <ele>117.9</ele>
        <time>2018-02-28T13:50:53Z</time>
      </trkpt>
      <trkpt lat="48.41561" lon="2.66494">
        <ele>116.46</ele>
        <time>2018-02-28T13:51:13Z</time>
      </trkpt>
      <trkpt lat="48.41571" lon="2.66483">
        <ele>115.98</ele>
        <time>2018-02-28T13:51:29Z</time>
      </trkpt>
      <trkpt lat="48.41579" lon="2.6648">
        <ele>115.5</ele>
        <time>2018-02-28T13:51:45Z</time>
      </trkpt>
      <trkpt lat="48.41582" lon="2.66471">
        <ele>114.53</ele>
        <time>2018-02-28T13:52:02Z</time>
      </trkpt>
      <trkpt lat="48.41589" lon="2.66461">
        <ele>111.17</ele>
        <time>2018-02-28T13:52:17Z</time>
      </trkpt>
      <trkpt lat="48.41593" lon="2.6644">
        <ele>112.61</ele>
        <time>2018-02-28T13:52:32Z</time>
      </trkpt>
      <trkpt lat="48.41582" lon="2.66422">
        <ele>113.57</ele>
        <time>2018-02-28T13:52:49Z</time>
      </trkpt>
      <trkpt lat="48.41573" lon="2.66412">
        <ele>112.61</ele>
        <time>2018-02-28T13:53:10Z</time>
      </trkpt>
      <trkpt lat="48.41567" lon="2.66407">
        <ele>114.05</ele>
        <time>2018-02-28T13:53:31Z</time>
      </trkpt>
      <trkpt lat="48.41557" lon="2.66398">
        <ele>115.98</ele>
        <time>2018-02-28T13:53:49Z</time>
      </trkpt>
      <trkpt lat="48.41548" lon="2.66391">
        <ele>117.9</ele>
        <time>2018-02-28T13:54:07Z</time>
      </trkpt>
      <trkpt lat="48.41538" lon="2.66384">
        <ele>119.82</ele>
        <time>2018-02-28T13:54:25Z</time>
      </trkpt>
      <trkpt lat="48.41526" lon="2.66381">
        <ele>122.22</ele>
        <time>2018-02-28T13:54:42Z</time>
      </trkpt>
      <trkpt lat="48.41525" lon="2.66376">
        <ele>126.07</ele>
        <time>2018-02-28T13:54:58Z</time>
      </trkpt>
      <trkpt lat="48.41518" lon="2.66378">
        <ele>127.03</ele>
        <time>2018-02-28T13:55:14Z</time>
      </trkpt>
      <trkpt lat="48.41508" lon="2.66371">
        <ele>126.07</ele>
        <time>2018-02-28T13:55:33Z</time>
      </trkpt>
      <trkpt lat="48.41504" lon="2.66358">
        <ele>124.15</ele>
        <time>2018-02-28T13:55:51Z</time>
      </trkpt>
      <trkpt lat="48.41498" lon="2.66352">
        <ele>124.15</ele>
        <time>2018-02-28T13:56:08Z</time>
      </trkpt>
      <trkpt lat="48.41485" lon="2.66341">
        <ele>122.22</ele>
        <time>2018-02-28T13:56:25Z</time>
      </trkpt>
      <trkpt lat="48.41478" lon="2.66327">
        <ele>119.82</ele>
        <time>2018-02-28T13:56:41Z</time>
      </trkpt>
      <trkpt lat="48.41469" lon="2.6632">
        <ele>119.82</ele>
        <time>2018-02-28T13:56:59Z</time>
      </trkpt>
      <trkpt lat="48.41471" lon="2.66325">
        <ele>122.22</ele>
        <time>2018-02-28T13:57:23Z</time>
      </trkpt>
      <trkpt lat="48.41472" lon="2.66325">
        <ele>124.63</ele>
        <time>2018-02-28T13:57:43Z</time>
      </trkpt>
      <trkpt lat="48.41475" lon="2.66334">
        <ele>127.03</ele>
        <time>2018-02-28T13:58:04Z</time>
      </trkpt>
      <trkpt lat="48.41474" lon="2.66349">
        <ele>127.51</ele>
        <time>2018-02-28T13:58:23Z</time>
      </trkpt>
      <trkpt lat="48.41468" lon="2.6637">
        <ele>125.59</ele>
        <time>2018-02-28T13:58:40Z</time>
      </trkpt>
      <trkpt lat="48.41459" lon="2.66396">
        <ele>122.22</ele>
        <time>2018-02-28T13:59:03Z</time>
      </trkpt>
      <trkpt lat="48.4145" lon="2.66422">
        <ele>119.34</ele>
        <time>2018-02-28T13:59:25Z</time>
      </trkpt>
      <trkpt lat="48.41441" lon="2.66445">
        <ele>115.98</ele>
        <time>2018-02-28T13:59:46Z</time>
      </trkpt>
      <trkpt lat="48.41434" lon="2.66465">
        <ele>113.09</ele>
        <time>2018-02-28T14:00:05Z</time>
      </trkpt>
      <trkpt lat="48.41419" lon="2.66497">
        <ele>108.77</ele>
        <time>2018-02-28T14:00:30Z</time>
      </trkpt>
      <trkpt lat="48.41413" lon="2.66524">
        <ele>106.84</ele>
        <time>2018-02-28T14:00:51Z</time>
      </trkpt>
      <trkpt lat="48.41405" lon="2.66548">
        <ele>103.96</ele>
        <time>2018-02-28T14:01:10Z</time>
      </trkpt>
      <trkpt lat="48.41399" lon="2.6657">
        <ele>98.19</ele>
        <time>2018-02-28T14:01:28Z</time>
      </trkpt>
      <trkpt lat="48.41391" lon="2.666">
        <ele>104.92</ele>
        <time>2018-02-28T14:01:47Z</time>
      </trkpt>
      <trkpt lat="48.41381" lon="2.66631">
        <ele>109.73</ele>
        <time>2018-02-28T14:02:08Z</time>
      </trkpt>
      <trkpt lat="48.41371" lon="2.66661">
        <ele>107.32</ele>
        <time>2018-02-28T14:02:31Z</time>
      </trkpt>
      <trkpt lat="48.41369" lon="2.6666">
        <ele>101.08</ele>
        <time>2018-02-28T14:02:54Z</time>
      </trkpt>
      <trkpt lat="48.41365" lon="2.66661">
        <ele>101.56</ele>
        <time>2018-02-28T14:03:18Z</time>
      </trkpt>
      <trkpt lat="48.4135" lon="2.66648">
        <ele>108.77</ele>
        <time>2018-02-28T14:03:38Z</time>
      </trkpt>
      <trkpt lat="48.41348" lon="2.66635">
        <ele>109.73</ele>
        <time>2018-02-28T14:03:51Z</time>
      </trkpt>
      <trkpt lat="48.41338" lon="2.66618">
        <ele>111.17</ele>
        <time>2018-02-28T14:04:08Z</time>
      </trkpt>
      <trkpt lat="48.41326" lon="2.66611">
        <ele>112.61</ele>
        <time>2018-02-28T14:04:23Z</time>
      </trkpt>
      <trkpt lat="48.41313" lon="2.66607">
        <ele>117.42</ele>
        <time>2018-02-28T14:04:42Z</time>
      </trkpt>
      <trkpt lat="48.41304" lon="2.66599">
        <ele>122.22</ele>
        <time>2018-02-28T14:04:56Z</time>
      </trkpt>
      <trkpt lat="48.41292" lon="2.66591">
        <ele>126.55</ele>
        <time>2018-02-28T14:05:14Z</time>
      </trkpt>
      <trkpt lat="48.41288" lon="2.66575">
        <ele>127.99</ele>
        <time>2018-02-28T14:05:30Z</time>
      </trkpt>
      <trkpt lat="48.41279" lon="2.66557">
        <ele>126.07</ele>
        <time>2018-02-28T14:05:46Z</time>
      </trkpt>
      <trkpt lat="48.41273" lon="2.6654">
        <ele>127.03</ele>
        <time>2018-02-28T14:06:03Z</time>
      </trkpt>
      <trkpt lat="48.41269" lon="2.66519">
        <ele>127.51</ele>
        <time>2018-02-28T14:06:21Z</time>
      </trkpt>
      <trkpt lat="48.4127" lon="2.66499">
        <ele>122.71</ele>
        <time>2018-02-28T14:06:38Z</time>
      </trkpt>
      <trkpt lat="48.41272" lon="2.66482">
        <ele>122.22</ele>
        <time>2018-02-28T14:06:52Z</time>
      </trkpt>
      <trkpt lat="48.41272" lon="2.66472">
        <ele>117.9</ele>
        <time>2018-02-28T14:07:06Z</time>
      </trkpt>
      <trkpt lat="48.41267" lon="2.66456">
        <ele>116.94</ele>
        <time>2018-02-28T14:07:25Z</time>
      </trkpt>
      <trkpt lat="48.41264" lon="2.66439">
        <ele>118.38</ele>
        <time>2018-02-28T14:07:43Z</time>
      </trkpt>
      <trkpt lat="48.41268" lon="2.66422">
        <ele>116.94</ele>
        <time>2018-02-28T14:07:59Z</time>
      </trkpt>
      <trkpt lat="48.41267" lon="2.66407">
        <ele>117.9</ele>
        <time>2018-02-28T14:08:14Z</time>
      </trkpt>
      <trkpt lat="48.41265" lon="2.6639">
        <ele>118.38</ele>
        <time>2018-02-28T14:08:28Z</time>
      </trkpt>
      <trkpt lat="48.4127" lon="2.66374">
        <ele>116.94</ele>
        <time>2018-02-28T14:08:42Z</time>
      </trkpt>
      <trkpt lat="48.41273" lon="2.66357">
        <ele>115.98</ele>
        <time>2018-02-28T14:08:57Z</time>
      </trkpt>
      <trkpt lat="48.41277" lon="2.66342">
        <ele>116.46</ele>
        <time>2018-02-28T14:09:15Z</time>
      </trkpt>
      <trkpt lat="48.41278" lon="2.66325">
        <ele>115.98</ele>
        <time>2018-02-28T14:09:28Z</time>
      </trkpt>
      <trkpt lat="48.4128" lon="2.66308">
        <ele>115.5</ele>
        <time>2018-02-28T14:09:45Z</time>
      </trkpt>
      <trkpt lat="48.4128" lon="2.66292">
        <ele>117.42</ele>
        <time>2018-02-28T14:09:59Z</time>
      </trkpt>
      <trkpt lat="48.41286" lon="2.66276">
        <ele>118.38</ele>
        <time>2018-02-28T14:10:13Z</time>
      </trkpt>
      <trkpt lat="48.41285" lon="2.66258">
        <ele>120.78</ele>
        <time>2018-02-28T14:10:31Z</time>
      </trkpt>
      <trkpt lat="48.41284" lon="2.66241">
        <ele>121.74</ele>
        <time>2018-02-28T14:10:46Z</time>
      </trkpt>
      <trkpt lat="48.4129" lon="2.66228">
        <ele>119.82</ele>
        <time>2018-02-28T14:11:00Z</time>
      </trkpt>
      <trkpt lat="48.41294" lon="2.66216">
        <ele>121.26</ele>
        <time>2018-02-28T14:11:17Z</time>
      </trkpt>
      <trkpt lat="48.41293" lon="2.662">
        <ele>122.71</ele>
        <time>2018-02-28T14:11:32Z</time>
      </trkpt>
      <trkpt lat="48.41298" lon="2.66184">
        <ele>123.67</ele>
        <time>2018-02-28T14:11:49Z</time>
      </trkpt>
      <trkpt lat="48.41301" lon="2.66171">
        <ele>125.59</ele>
        <time>2018-02-28T14:12:06Z</time>
      </trkpt>
      <trkpt lat="48.41294" lon="2.66168">
        <ele>125.11</ele>
        <time>2018-02-28T14:12:24Z</time>
      </trkpt>
      <trkpt lat="48.41285" lon="2.66161">
        <ele>126.55</ele>
        <time>2018-02-28T14:12:39Z</time>
      </trkpt>
      <trkpt lat="48.41275" lon="2.66149">
        <ele>127.99</ele>
        <time>2018-02-28T14:12:56Z</time>
      </trkpt>
      <trkpt lat="48.41266" lon="2.66152">
        <ele>126.07</ele>
        <time>2018-02-28T14:13:15Z</time>
      </trkpt>
      <trkpt lat="48.41255" lon="2.66156">
        <ele>122.71</ele>
        <time>2018-02-28T14:13:32Z</time>
      </trkpt>
      <trkpt lat="48.41248" lon="2.66163">
        <ele>121.74</ele>
        <time>2018-02-28T14:13:48Z</time>
      </trkpt>
      <trkpt lat="48.4124" lon="2.6617">
        <ele>123.19</ele>
        <time>2018-02-28T14:14:07Z</time>
      </trkpt>
      <trkpt lat="48.41234" lon="2.66172">
        <ele>120.78</ele>
        <time>2018-02-28T14:14:25Z</time>
      </trkpt>
      <trkpt lat="48.41228" lon="2.66173">
        <ele>122.22</ele>
        <time>2018-02-28T14:14:40Z</time>
      </trkpt>
      <trkpt lat="48.41228" lon="2.66173">
        <ele>119.34</ele>
        <time>2018-02-28T14:15:00Z</time>
      </trkpt>
      <trkpt lat="48.41223" lon="2.6618">
        <ele>116.46</ele>
        <time>2018-02-28T14:15:17Z</time>
      </trkpt>
      <trkpt lat="48.41212" lon="2.66184">
        <ele>119.82</ele>
        <time>2018-02-28T14:15:35Z</time>
      </trkpt>
      <trkpt lat="48.41207" lon="2.66191">
        <ele>119.34</ele>
        <time>2018-02-28T14:15:54Z</time>
      </trkpt>
      <trkpt lat="48.41205" lon="2.66195">
        <ele>120.3</ele>
        <time>2018-02-28T14:16:10Z</time>
      </trkpt>
      <trkpt lat="48.41197" lon="2.66199">
        <ele>118.86</ele>
        <time>2018-02-28T14:16:31Z</time>
      </trkpt>
      <trkpt lat="48.41188" lon="2.66208">
        <ele>116.46</ele>
        <time>2018-02-28T14:16:47Z</time>
      </trkpt>
      <trkpt lat="48.41182" lon="2.66212">
        <ele>115.5</ele>
        <time>2018-02-28T14:17:00Z</time>
      </trkpt>
      <trkpt lat="48.41169" lon="2.66221">
        <ele>116.94</ele>
        <time>2018-02-28T14:17:19Z</time>
      </trkpt>
      <trkpt lat="48.41163" lon="2.66222">
        <ele>117.42</ele>
        <time>2018-02-28T14:17:37Z</time>
      </trkpt>
      <trkpt lat="48.4116" lon="2.66214">
        <ele>123.67</ele>
        <time>2018-02-28T14:17:59Z</time>
      </trkpt>
      <trkpt lat="48.41154" lon="2.66215">
        <ele>124.63</ele>
        <time>2018-02-28T14:18:21Z</time>
      </trkpt>
      <trkpt lat="48.4116" lon="2.6622">
        <ele>125.59</ele>
        <time>2018-02-28T14:18:36Z</time>
      </trkpt>
      <trkpt lat="48.41153" lon="2.66228">
        <ele>124.63</ele>
        <time>2018-02-28T14:18:52Z</time>
      </trkpt>
      <trkpt lat="48.41138" lon="2.66239">
        <ele>121.74</ele>
        <time>2018-02-28T14:19:07Z</time>
      </trkpt>
      <trkpt lat="48.41131" lon="2.66242">
        <ele>121.74</ele>
        <time>2018-02-28T14:19:20Z</time>
      </trkpt>
      <trkpt lat="48.41117" lon="2.66248">
        <ele>121.26</ele>
        <time>2018-02-28T14:19:38Z</time>
      </trkpt>
      <trkpt lat="48.41105" lon="2.66261">
        <ele>127.51</ele>
        <time>2018-02-28T14:19:55Z</time>
      </trkpt>
      <trkpt lat="48.41097" lon="2.66266">
        <ele>129.43</ele>
        <time>2018-02-28T14:20:12Z</time>
      </trkpt>
      <trkpt lat="48.41083" lon="2.66272">
        <ele>131.84</ele>
        <time>2018-02-28T14:20:30Z</time>
      </trkpt>
      <trkpt lat="48.4108" lon="2.66274">
        <ele>130.88</ele>
        <time>2018-02-28T14:20:35Z</time>
      </trkpt>
      <trkpt lat="48.41076" lon="2.66279">
        <ele>133.76</ele>
        <time>2018-02-28T14:20:49Z</time>
      </trkpt>
      <trkpt lat="48.41064" lon="2.66285">
        <ele>132.32</ele>
        <time>2018-02-28T14:21:06Z</time>
      </trkpt>
      <trkpt lat="48.41055" lon="2.66293">
        <ele>131.36</ele>
        <time>2018-02-28T14:21:23Z</time>
      </trkpt>
      <trkpt lat="48.41047" lon="2.66298">
        <ele>131.84</ele>
        <time>2018-02-28T14:21:40Z</time>
      </trkpt>
      <trkpt lat="48.41034" lon="2.66306">
        <ele>132.8</ele>
        <time>2018-02-28T14:21:58Z</time>
      </trkpt>
      <trkpt lat="48.41018" lon="2.66315">
        <ele>134.24</ele>
        <time>2018-02-28T14:22:14Z</time>
      </trkpt>
      <trkpt lat="48.41007" lon="2.6631">
        <ele>127.51</ele>
        <time>2018-02-28T14:22:31Z</time>
      </trkpt>
      <trkpt lat="48.40995" lon="2.66319">
        <ele>125.11</ele>
        <time>2018-02-28T14:22:49Z</time>
      </trkpt>
      <trkpt lat="48.4098" lon="2.66332">
        <ele>123.19</ele>
        <time>2018-02-28T14:23:06Z</time>
      </trkpt>
      <trkpt lat="48.40966" lon="2.66345">
        <ele>125.59</ele>
        <time>2018-02-28T14:23:24Z</time>
      </trkpt>
      <trkpt lat="48.40953" lon="2.66354">
        <ele>128.47</ele>
        <time>2018-02-28T14:23:41Z</time>
      </trkpt>
      <trkpt lat="48.40938" lon="2.66364">
        <ele>129.92</ele>
        <time>2018-02-28T14:24:00Z</time>
      </trkpt>
      <trkpt lat="48.40924" lon="2.66372">
        <ele>127.03</ele>
        <time>2018-02-28T14:24:18Z</time>
      </trkpt>
      <trkpt lat="48.40912" lon="2.66377">
        <ele>130.4</ele>
        <time>2018-02-28T14:24:36Z</time>
      </trkpt>
      <trkpt lat="48.40902" lon="2.66385">
        <ele>130.4</ele>
        <time>2018-02-28T14:24:52Z</time>
      </trkpt>
      <trkpt lat="48.4089" lon="2.66393">
        <ele>131.36</ele>
        <time>2018-02-28T14:25:11Z</time>
      </trkpt>
      <trkpt lat="48.40878" lon="2.66397">
        <ele>128.95</ele>
        <time>2018-02-28T14:25:29Z</time>
      </trkpt>
      <trkpt lat="48.40864" lon="2.66409">
        <ele>127.99</ele>
        <time>2018-02-28T14:25:48Z</time>
      </trkpt>
      <trkpt lat="48.40849" lon="2.66419">
        <ele>131.84</ele>
        <time>2018-02-28T14:26:08Z</time>
      </trkpt>
      <trkpt lat="48.40841" lon="2.66428">
        <ele>132.32</ele>
        <time>2018-02-28T14:26:25Z</time>
      </trkpt>
      <trkpt lat="48.40827" lon="2.66436">
        <ele>131.36</ele>
        <time>2018-02-28T14:26:43Z</time>
      </trkpt>
      <trkpt lat="48.40812" lon="2.66445">
        <ele>131.84</ele>
        <time>2018-02-28T14:27:02Z</time>
      </trkpt>
      <trkpt lat="48.40798" lon="2.66455">
        <ele>131.36</ele>
        <time>2018-02-28T14:27:20Z</time>
      </trkpt>
      <trkpt lat="48.40783" lon="2.66461">
        <ele>127.99</ele>
        <time>2018-02-28T14:27:37Z</time>
      </trkpt>
      <trkpt lat="48.40771" lon="2.66466">
        <ele>127.51</ele>
        <time>2018-02-28T14:27:54Z</time>
      </trkpt>
      <trkpt lat="48.40757" lon="2.66474">
        <ele>127.03</ele>
        <time>2018-02-28T14:28:14Z</time>
      </trkpt>
      <trkpt lat="48.40743" lon="2.66483">
        <ele>121.26</ele>
        <time>2018-02-28T14:28:34Z</time>
      </trkpt>
      <trkpt lat="48.40739" lon="2.66488">
        <ele>119.82</ele>
        <time>2018-02-28T14:28:51Z</time>
      </trkpt>
      <trkpt lat="48.40735" lon="2.66499">
        <ele>119.34</ele>
        <time>2018-02-28T14:29:09Z</time>
      </trkpt>
      <trkpt lat="48.40733" lon="2.66508">
        <ele>119.82</ele>
        <time>2018-02-28T14:29:29Z</time>
      </trkpt>
      <trkpt lat="48.40731" lon="2.66523">
        <ele>118.86</ele>
        <time>2018-02-28T14:29:46Z</time>
      </trkpt>
      <trkpt lat="48.40729" lon="2.66534">
        <ele>119.34</ele>
        <time>2018-02-28T14:30:02Z</time>
      </trkpt>
      <trkpt lat="48.40721" lon="2.66554">
        <ele>116.94</ele>
        <time>2018-02-28T14:30:20Z</time>
      </trkpt>
      <trkpt lat="48.40714" lon="2.66576">
        <ele>112.13</ele>
        <time>2018-02-28T14:30:39Z</time>
      </trkpt>
      <trkpt lat="48.40709" lon="2.66595">
        <ele>110.69</ele>
        <time>2018-02-28T14:30:57Z</time>
      </trkpt>
      <trkpt lat="48.40701" lon="2.66609">
        <ele>108.29</ele>
        <time>2018-02-28T14:31:12Z</time>
      </trkpt>
      <trkpt lat="48.40689" lon="2.66622">
        <ele>106.36</ele>
        <time>2018-02-28T14:31:27Z</time>
      </trkpt>
      <trkpt lat="48.40678" lon="2.66629">
        <ele>103.48</ele>
        <time>2018-02-28T14:31:43Z</time>
      </trkpt>
      <trkpt lat="48.40666" lon="2.66642">
        <ele>102.52</ele>
        <time>2018-02-28T14:31:59Z</time>
      </trkpt>
      <trkpt lat="48.40658" lon="2.6665">
        <ele>101.08</ele>
        <time>2018-02-28T14:32:14Z</time>
      </trkpt>
      <trkpt lat="48.40651" lon="2.66655">
        <ele>100.6</ele>
        <time>2018-02-28T14:32:26Z</time>
      </trkpt>
      <trkpt lat="48.40649" lon="2.66656">
        <ele>98.67</ele>
        <time>2018-02-28T14:32:47Z</time>
      </trkpt>
      <trkpt lat="48.40647" lon="2.66655">
        <ele>98.67</ele>
        <time>2018-02-28T14:33:16Z</time>
      </trkpt>
      <trkpt lat="48.40655" lon="2.66673">
        <ele>103.48</ele>
        <time>2018-02-28T14:33:38Z</time>
      </trkpt>
      <trkpt lat="48.4065" lon="2.66696">
        <ele>103</ele>
        <time>2018-02-28T14:33:55Z</time>
      </trkpt>
      <trkpt lat="48.40644" lon="2.66721">
        <ele>101.08</ele>
        <time>2018-02-28T14:34:16Z</time>
      </trkpt>
      <trkpt lat="48.40644" lon="2.6674">
        <ele>101.56</ele>
        <time>2018-02-28T14:34:34Z</time>
      </trkpt>
      <trkpt lat="48.40643" lon="2.6676">
        <ele>101.08</ele>
        <time>2018-02-28T14:34:50Z</time>
      </trkpt>
      <trkpt lat="48.40638" lon="2.66785">
        <ele>98.67</ele>
        <time>2018-02-28T14:35:09Z</time>
      </trkpt>
      <trkpt lat="48.40638" lon="2.66806">
        <ele>96.75</ele>
        <time>2018-02-28T14:35:27Z</time>
      </trkpt>
      <trkpt lat="48.40634" lon="2.66832">
        <ele>97.71</ele>
        <time>2018-02-28T14:35:47Z</time>
      </trkpt>
      <trkpt lat="48.4063" lon="2.66853">
        <ele>97.71</ele>
        <time>2018-02-28T14:36:06Z</time>
      </trkpt>
      <trkpt lat="48.40629" lon="2.6687">
        <ele>99.15</ele>
        <time>2018-02-28T14:36:22Z</time>
      </trkpt>
      <trkpt lat="48.40625" lon="2.66892">
        <ele>95.31</ele>
        <time>2018-02-28T14:36:42Z</time>
      </trkpt>
      <trkpt lat="48.40624" lon="2.66907">
        <ele>93.39</ele>
        <time>2018-02-28T14:36:57Z</time>
      </trkpt>
      <trkpt lat="48.40621" lon="2.6693">
        <ele>92.42</ele>
        <time>2018-02-28T14:37:16Z</time>
      </trkpt>
      <trkpt lat="48.40621" lon="2.66932">
        <ele>92.42</ele>
        <time>2018-02-28T14:37:17Z</time>
      </trkpt>
      <trkpt lat="48.40619" lon="2.66954">
        <ele>93.39</ele>
        <time>2018-02-28T14:37:34Z</time>
      </trkpt>
      <trkpt lat="48.40614" lon="2.66979">
        <ele>91.94</ele>
        <time>2018-02-28T14:37:54Z</time>
      </trkpt>
      <trkpt lat="48.40613" lon="2.67001">
        <ele>91.46</ele>
        <time>2018-02-28T14:38:13Z</time>
      </trkpt>
      <trkpt lat="48.40608" lon="2.67028">
        <ele>90.98</ele>
        <time>2018-02-28T14:38:32Z</time>
      </trkpt>
      <trkpt lat="48.40605" lon="2.67057">
        <ele>90.98</ele>
        <time>2018-02-28T14:38:52Z</time>
      </trkpt>
      <trkpt lat="48.40602" lon="2.67084">
        <ele>90.02</ele>
        <time>2018-02-28T14:39:13Z</time>
      </trkpt>
      <trkpt lat="48.406" lon="2.67108">
        <ele>89.54</ele>
        <time>2018-02-28T14:39:31Z</time>
      </trkpt>
      <trkpt lat="48.40598" lon="2.67137">
        <ele>89.06</ele>
        <time>2018-02-28T14:39:51Z</time>
      </trkpt>
      <trkpt lat="48.40594" lon="2.6716">
        <ele>89.06</ele>
        <time>2018-02-28T14:40:09Z</time>
      </trkpt>
      <trkpt lat="48.40594" lon="2.67182">
        <ele>89.06</ele>
        <time>2018-02-28T14:40:27Z</time>
      </trkpt>
      <trkpt lat="48.40595" lon="2.672">
        <ele>88.58</ele>
        <time>2018-02-28T14:40:42Z</time>
      </trkpt>
      <trkpt lat="48.40591" lon="2.67225">
        <ele>87.62</ele>
        <time>2018-02-28T14:40:59Z</time>
      </trkpt>
      <trkpt lat="48.40586" lon="2.6725">
        <ele>84.73</ele>
        <time>2018-02-28T14:41:17Z</time>
      </trkpt>
      <trkpt lat="48.40585" lon="2.67259">
        <ele>83.77</ele>
        <time>2018-02-28T14:41:24Z</time>
      </trkpt>
      <trkpt lat="48.40582" lon="2.67289">
        <ele>83.29</ele>
        <time>2018-02-28T14:41:43Z</time>
      </trkpt>
      <trkpt lat="48.40581" lon="2.67316">
        <ele>82.81</ele>
        <time>2018-02-28T14:42:03Z</time>
      </trkpt>
      <trkpt lat="48.40578" lon="2.67342">
        <ele>81.37</ele>
        <time>2018-02-28T14:42:21Z</time>
      </trkpt>
      <trkpt lat="48.40577" lon="2.67369">
        <ele>82.33</ele>
        <time>2018-02-28T14:42:40Z</time>
      </trkpt>
      <trkpt lat="48.40573" lon="2.67395">
        <ele>81.85</ele>
        <time>2018-02-28T14:42:58Z</time>
      </trkpt>
      <trkpt lat="48.4057" lon="2.67423">
        <ele>79.93</ele>
        <time>2018-02-28T14:43:18Z</time>
      </trkpt>
      <trkpt lat="48.40569" lon="2.67449">
        <ele>80.41</ele>
        <time>2018-02-28T14:43:34Z</time>
      </trkpt>
      <trkpt lat="48.40566" lon="2.67476">
        <ele>81.37</ele>
        <time>2018-02-28T14:43:53Z</time>
      </trkpt>
      <trkpt lat="48.40563" lon="2.675">
        <ele>79.93</ele>
        <time>2018-02-28T14:44:10Z</time>
      </trkpt>
      <trkpt lat="48.4056" lon="2.67525">
        <ele>79.93</ele>
        <time>2018-02-28T14:44:28Z</time>
      </trkpt>
      <trkpt lat="48.40558" lon="2.6755">
        <ele>80.41</ele>
        <time>2018-02-28T14:44:46Z</time>
      </trkpt>
      <trkpt lat="48.40556" lon="2.67573">
        <ele>80.41</ele>
        <time>2018-02-28T14:45:02Z</time>
      </trkpt>
      <trkpt lat="48.40556" lon="2.67588">
        <ele>80.89</ele>
        <time>2018-02-28T14:45:17Z</time>
      </trkpt>
      <trkpt lat="48.40555" lon="2.6761">
        <ele>79.93</ele>
        <time>2018-02-28T14:45:35Z</time>
      </trkpt>
      <trkpt lat="48.40554" lon="2.67616">
        <ele>81.85</ele>
        <time>2018-02-28T14:45:54Z</time>
      </trkpt>
      <trkpt lat="48.40553" lon="2.67638">
        <ele>83.29</ele>
        <time>2018-02-28T14:46:10Z</time>
      </trkpt>
      <trkpt lat="48.40549" lon="2.67658">
        <ele>83.29</ele>
        <time>2018-02-28T14:46:29Z</time>
      </trkpt>
      <trkpt lat="48.40545" lon="2.67675">
        <ele>83.77</ele>
        <time>2018-02-28T14:46:44Z</time>
      </trkpt>
      <trkpt lat="48.40538" lon="2.67689">
        <ele>81.85</ele>
        <time>2018-02-28T14:47:00Z</time>
      </trkpt>
      <trkpt lat="48.4053" lon="2.67703">
        <ele>82.33</ele>
        <time>2018-02-28T14:47:16Z</time>
      </trkpt>
      <trkpt lat="48.40517" lon="2.67716">
        <ele>82.81</ele>
        <time>2018-02-28T14:47:33Z</time>
      </trkpt>
      <trkpt lat="48.40505" lon="2.67731">
        <ele>81.37</ele>
        <time>2018-02-28T14:47:51Z</time>
      </trkpt>
      <trkpt lat="48.40501" lon="2.67745">
        <ele>80.89</ele>
        <time>2018-02-28T14:48:06Z</time>
      </trkpt>
      <trkpt lat="48.40499" lon="2.67767">
        <ele>81.37</ele>
        <time>2018-02-28T14:48:26Z</time>
      </trkpt>
      <trkpt lat="48.40486" lon="2.67785">
        <ele>80.41</ele>
        <time>2018-02-28T14:48:44Z</time>
      </trkpt>
      <trkpt lat="48.40476" lon="2.67795">
        <ele>79.45</ele>
        <time>2018-02-28T14:48:59Z</time>
      </trkpt>
      <trkpt lat="48.40476" lon="2.67797">
        <ele>79.93</ele>
        <time>2018-02-28T14:49:18Z</time>
      </trkpt>
      <trkpt lat="48.40475" lon="2.678">
        <ele>82.81</ele>
        <time>2018-02-28T14:49:42Z</time>
      </trkpt>
    </trkseg>
  </trk>
</gpx>